sensor_id;sensor_type;location;lat;lon;timestamp;pressure;altitude;pressure_sealevel;temperature;humidity
51053;BME280;37093;37.716;-122.060;2023-04-24T00:01:32;99700.37;;;21.46;38.15
51053;BME280;37093;37.716;-122.060;2023-04-24T00:04:01;99701.15;;;21.14;39.06
51053;BME280;37093;37.716;-122.060;2023-04-24T00:06:31;99701.60;;;20.56;39.87
51053;BME280;37093;37.716;-122.060;2023-04-24T00:08:59;99699.52;;;20.37;40.32
51053;BME280;37093;37.716;-122.060;2023-04-24T00:11:27;99703.08;;;19.68;41.16
51053;BME280;37093;37.716;-122.060;2023-04-24T00:13:56;99705.34;;;19.61;41.68
51053;BME280;37093;37.716;-122.060;2023-04-24T00:16:24;99704.67;;;20.01;40.67
51053;BME280;37093;37.716;-122.060;2023-04-24T00:18:53;99705.73;;;19.78;41.32
51053;BME280;37093;37.716;-122.060;2023-04-24T00:21:21;99707.93;;;20.01;41.01
51053;BME280;37093;37.716;-122.060;2023-04-24T00:23:50;99707.47;;;19.05;42.68
51053;BME280;37093;37.716;-122.060;2023-04-24T00:26:18;99702.03;;;20.08;41.68
51053;BME280;37093;37.716;-122.060;2023-04-24T00:28:47;99703.30;;;19.63;41.95
51053;BME280;37093;37.716;-122.060;2023-04-24T00:31:15;99701.47;;;18.77;42.97
51053;BME280;37093;37.716;-122.060;2023-04-24T00:33:43;99701.71;;;19.87;41.04
51053;BME280;37093;37.716;-122.060;2023-04-24T00:36:12;99697.76;;;19.86;41.06
51053;BME280;37093;37.716;-122.060;2023-04-24T00:38:41;99701.85;;;20.12;41.07
51053;BME280;37093;37.716;-122.060;2023-04-24T00:41:09;99702.58;;;20.10;40.40
51053;BME280;37093;37.716;-122.060;2023-04-24T00:43:37;99701.26;;;19.58;40.83
51053;BME280;37093;37.716;-122.060;2023-04-24T00:46:06;99706.64;;;19.40;41.44
51053;BME280;37093;37.716;-122.060;2023-04-24T00:48:35;99703.79;;;19.20;41.99
51053;BME280;37093;37.716;-122.060;2023-04-24T00:51:03;99708.03;;;19.41;41.42
51053;BME280;37093;37.716;-122.060;2023-04-24T00:53:31;99709.00;;;18.66;43.38
51053;BME280;37093;37.716;-122.060;2023-04-24T00:56:00;99712.35;;;18.12;44.61
51053;BME280;37093;37.716;-122.060;2023-04-24T00:58:29;99712.89;;;17.76;46.02
51053;BME280;37093;37.716;-122.060;2023-04-24T01:00:57;99711.55;;;17.82;45.57
51053;BME280;37093;37.716;-122.060;2023-04-24T01:03:29;99715.56;;;17.51;47.05
51053;BME280;37093;37.716;-122.060;2023-04-24T01:06:13;99715.22;;;18.31;45.10
51053;BME280;37093;37.716;-122.060;2023-04-24T01:08:42;99715.56;;;17.76;45.41
51053;BME280;37093;37.716;-122.060;2023-04-24T01:11:11;99718.12;;;17.88;45.57
51053;BME280;37093;37.716;-122.060;2023-04-24T01:13:40;99720.89;;;18.36;44.17
51053;BME280;37093;37.716;-122.060;2023-04-24T01:16:09;99722.27;;;18.33;43.57
51053;BME280;37093;37.716;-122.060;2023-04-24T01:18:37;99719.79;;;18.59;43.95
51053;BME280;37093;37.716;-122.060;2023-04-24T01:21:07;99719.08;;;18.12;44.76
51053;BME280;37093;37.716;-122.060;2023-04-24T01:23:36;99719.45;;;17.68;46.05
51053;BME280;37093;37.716;-122.060;2023-04-24T01:26:05;99713.97;;;17.96;45.39
51053;BME280;37093;37.716;-122.060;2023-04-24T01:28:33;99718.56;;;18.58;44.63
51053;BME280;37093;37.716;-122.060;2023-04-24T01:31:02;99716.91;;;18.23;44.67
51053;BME280;37093;37.716;-122.060;2023-04-24T01:33:31;99717.38;;;17.65;46.07
51053;BME280;37093;37.716;-122.060;2023-04-24T01:36:00;99718.40;;;18.03;45.22
51053;BME280;37093;37.716;-122.060;2023-04-24T01:38:29;99719.73;;;17.36;45.84
51053;BME280;37093;37.716;-122.060;2023-04-24T01:40:58;99714.95;;;17.15;46.68
51053;BME280;37093;37.716;-122.060;2023-04-24T01:43:26;99709.99;;;17.79;45.38
51053;BME280;37093;37.716;-122.060;2023-04-24T01:45:55;99711.89;;;17.46;45.39
51053;BME280;37093;37.716;-122.060;2023-04-24T01:48:24;99711.51;;;17.47;44.86
51053;BME280;37093;37.716;-122.060;2023-04-24T01:50:52;99714.22;;;18.11;44.87
51053;BME280;37093;37.716;-122.060;2023-04-24T01:53:21;99707.82;;;18.52;44.31
51053;BME280;37093;37.716;-122.060;2023-04-24T01:55:49;99706.56;;;17.86;43.91
51053;BME280;37093;37.716;-122.060;2023-04-24T01:58:18;99708.73;;;18.56;43.07
51053;BME280;37093;37.716;-122.060;2023-04-24T02:00:47;99706.28;;;17.41;45.35
51053;BME280;37093;37.716;-122.060;2023-04-24T02:03:15;99705.63;;;17.57;44.82
51053;BME280;37093;37.716;-122.060;2023-04-24T02:05:44;99704.56;;;18.08;44.18
51053;BME280;37093;37.716;-122.060;2023-04-24T02:08:13;99704.29;;;17.83;44.64
51053;BME280;37093;37.716;-122.060;2023-04-24T02:10:41;99706.92;;;17.18;45.64
51053;BME280;37093;37.716;-122.060;2023-04-24T02:13:10;99700.61;;;18.07;44.82
51053;BME280;37093;37.716;-122.060;2023-04-24T02:15:38;99706.62;;;17.39;46.00
51053;BME280;37093;37.716;-122.060;2023-04-24T02:18:06;99699.83;;;17.40;46.08
51053;BME280;37093;37.716;-122.060;2023-04-24T02:20:34;99701.77;;;17.97;45.71
51053;BME280;37093;37.716;-122.060;2023-04-24T02:23:03;99703.37;;;17.45;45.94
51053;BME280;37093;37.716;-122.060;2023-04-24T02:25:32;99700.03;;;17.56;44.05
51053;BME280;37093;37.716;-122.060;2023-04-24T02:28:00;99707.85;;;17.08;46.00
51053;BME280;37093;37.716;-122.060;2023-04-24T02:30:29;99708.95;;;16.75;47.54
51053;BME280;37093;37.716;-122.060;2023-04-24T02:32:57;99710.74;;;17.21;45.85
51053;BME280;37093;37.716;-122.060;2023-04-24T02:35:25;99713.54;;;17.08;46.08
51053;BME280;37093;37.716;-122.060;2023-04-24T02:37:53;99716.63;;;17.10;45.86
51053;BME280;37093;37.716;-122.060;2023-04-24T02:40:22;99721.96;;;16.68;46.11
51053;BME280;37093;37.716;-122.060;2023-04-24T02:42:50;99724.50;;;16.26;47.46
51053;BME280;37093;37.716;-122.060;2023-04-24T02:45:19;99730.35;;;16.16;48.37
51053;BME280;37093;37.716;-122.060;2023-04-24T02:47:47;99733.13;;;16.25;47.50
51053;BME280;37093;37.716;-122.060;2023-04-24T02:50:16;99739.63;;;16.22;46.91
51053;BME280;37093;37.716;-122.060;2023-04-24T02:52:45;99740.37;;;16.92;46.37
51053;BME280;37093;37.716;-122.060;2023-04-24T02:55:13;99744.26;;;16.59;46.34
51053;BME280;37093;37.716;-122.060;2023-04-24T02:57:41;99744.74;;;16.37;47.03
51053;BME280;37093;37.716;-122.060;2023-04-24T03:00:11;99746.09;;;16.00;47.24
51053;BME280;37093;37.716;-122.060;2023-04-24T03:02:39;99744.02;;;16.14;47.26
51053;BME280;37093;37.716;-122.060;2023-04-24T03:05:08;99753.29;;;16.01;47.30
51053;BME280;37093;37.716;-122.060;2023-04-24T03:07:36;99756.92;;;15.90;48.39
51053;BME280;37093;37.716;-122.060;2023-04-24T03:10:07;99757.63;;;15.64;48.66
51053;BME280;37093;37.716;-122.060;2023-04-24T03:12:36;99759.30;;;16.02;48.00
51053;BME280;37093;37.716;-122.060;2023-04-24T03:15:05;99759.57;;;15.88;47.79
51053;BME280;37093;37.716;-122.060;2023-04-24T03:17:34;99765.18;;;15.72;47.77
51053;BME280;37093;37.716;-122.060;2023-04-24T03:20:02;99767.70;;;14.69;50.56
51053;BME280;37093;37.716;-122.060;2023-04-24T03:22:31;99768.87;;;15.04;50.20
51053;BME280;37093;37.716;-122.060;2023-04-24T03:24:59;99771.55;;;15.23;48.79
51053;BME280;37093;37.716;-122.060;2023-04-24T03:27:28;99768.20;;;15.16;49.80
51053;BME280;37093;37.716;-122.060;2023-04-24T03:29:56;99763.46;;;15.73;48.17
51053;BME280;37093;37.716;-122.060;2023-04-24T03:32:24;99769.71;;;15.70;48.71
51053;BME280;37093;37.716;-122.060;2023-04-24T03:34:52;99779.57;;;14.90;50.30
51053;BME280;37093;37.716;-122.060;2023-04-24T03:37:21;99786.01;;;15.20;49.69
51053;BME280;37093;37.716;-122.060;2023-04-24T03:39:49;99790.87;;;15.41;49.18
51053;BME280;37093;37.716;-122.060;2023-04-24T03:42:18;99795.54;;;15.19;49.97
51053;BME280;37093;37.716;-122.060;2023-04-24T03:44:46;99799.21;;;15.28;49.76
51053;BME280;37093;37.716;-122.060;2023-04-24T03:47:14;99802.11;;;15.66;48.84
51053;BME280;37093;37.716;-122.060;2023-04-24T03:49:43;99806.87;;;15.46;49.06
51053;BME280;37093;37.716;-122.060;2023-04-24T03:52:11;99803.18;;;15.66;48.51
51053;BME280;37093;37.716;-122.060;2023-04-24T03:54:40;99799.22;;;16.18;47.48
51053;BME280;37093;37.716;-122.060;2023-04-24T03:57:08;99803.51;;;15.94;47.54
51053;BME280;37093;37.716;-122.060;2023-04-24T03:59:37;99806.73;;;16.37;45.97
51053;BME280;37093;37.716;-122.060;2023-04-24T04:02:05;99810.59;;;16.58;46.84
51053;BME280;37093;37.716;-122.060;2023-04-24T04:04:34;99809.66;;;16.54;46.36
51053;BME280;37093;37.716;-122.060;2023-04-24T04:07:02;99816.52;;;15.80;47.23
51053;BME280;37093;37.716;-122.060;2023-04-24T04:09:30;99819.83;;;16.29;47.23
51053;BME280;37093;37.716;-122.060;2023-04-24T04:11:59;99818.33;;;16.29;46.34
51053;BME280;37093;37.716;-122.060;2023-04-24T04:14:27;99829.39;;;15.17;49.04
51053;BME280;37093;37.716;-122.060;2023-04-24T04:16:55;99826.21;;;16.10;47.54
51053;BME280;37093;37.716;-122.060;2023-04-24T04:19:24;99823.66;;;16.06;46.48
51053;BME280;37093;37.716;-122.060;2023-04-24T04:21:53;99821.34;;;16.55;46.88
51053;BME280;37093;37.716;-122.060;2023-04-24T04:24:21;99816.69;;;16.86;45.64
51053;BME280;37093;37.716;-122.060;2023-04-24T04:26:50;99818.77;;;16.99;45.30
51053;BME280;37093;37.716;-122.060;2023-04-24T04:29:18;99818.86;;;16.84;45.59
51053;BME280;37093;37.716;-122.060;2023-04-24T04:31:47;99826.93;;;16.51;44.53
51053;BME280;37093;37.716;-122.060;2023-04-24T04:34:15;99832.12;;;16.48;45.34
51053;BME280;37093;37.716;-122.060;2023-04-24T04:36:43;99833.27;;;16.40;46.33
51053;BME280;37093;37.716;-122.060;2023-04-24T04:39:11;99835.87;;;16.56;46.01
51053;BME280;37093;37.716;-122.060;2023-04-24T04:41:39;99835.27;;;16.04;46.75
51053;BME280;37093;37.716;-122.060;2023-04-24T04:44:08;99836.54;;;16.18;47.34
51053;BME280;37093;37.716;-122.060;2023-04-24T04:46:36;99842.56;;;15.95;48.16
51053;BME280;37093;37.716;-122.060;2023-04-24T04:49:05;99847.71;;;16.23;47.01
51053;BME280;37093;37.716;-122.060;2023-04-24T04:51:33;99846.95;;;15.85;47.17
51053;BME280;37093;37.716;-122.060;2023-04-24T04:54:02;99851.98;;;16.04;46.57
51053;BME280;37093;37.716;-122.060;2023-04-24T04:56:30;99850.57;;;16.45;46.00
51053;BME280;37093;37.716;-122.060;2023-04-24T04:58:59;99850.28;;;16.15;45.86
51053;BME280;37093;37.716;-122.060;2023-04-24T05:01:27;99855.44;;;15.55;47.81
51053;BME280;37093;37.716;-122.060;2023-04-24T05:03:55;99856.30;;;14.92;48.35
51053;BME280;37093;37.716;-122.060;2023-04-24T05:06:23;99856.54;;;15.29;49.70
51053;BME280;37093;37.716;-122.060;2023-04-24T05:08:52;99859.76;;;15.01;48.54
51053;BME280;37093;37.716;-122.060;2023-04-24T05:11:20;99857.82;;;16.03;47.98
51053;BME280;37093;37.716;-122.060;2023-04-24T05:13:50;99859.31;;;15.64;47.26
51053;BME280;37093;37.716;-122.060;2023-04-24T05:16:18;99859.48;;;15.76;47.40
51053;BME280;37093;37.716;-122.060;2023-04-24T05:18:47;99862.49;;;15.61;46.98
51053;BME280;37093;37.716;-122.060;2023-04-24T05:21:16;99863.97;;;15.29;48.14
51053;BME280;37093;37.716;-122.060;2023-04-24T05:23:45;99864.85;;;15.54;47.30
51053;BME280;37093;37.716;-122.060;2023-04-24T05:26:14;99865.63;;;15.55;48.57
51053;BME280;37093;37.716;-122.060;2023-04-24T05:28:42;99868.76;;;15.69;48.43
51053;BME280;37093;37.716;-122.060;2023-04-24T05:31:11;99862.32;;;15.10;48.50
51053;BME280;37093;37.716;-122.060;2023-04-24T05:33:39;99862.24;;;14.70;49.59
51053;BME280;37093;37.716;-122.060;2023-04-24T05:36:08;99854.08;;;14.59;50.86
51053;BME280;37093;37.716;-122.060;2023-04-24T05:38:36;99845.36;;;15.46;49.47
51053;BME280;37093;37.716;-122.060;2023-04-24T05:41:04;99842.89;;;14.40;52.26
51053;BME280;37093;37.716;-122.060;2023-04-24T05:43:32;99838.37;;;13.79;53.60
51053;BME280;37093;37.716;-122.060;2023-04-24T05:46:00;99836.82;;;13.63;54.59
51053;BME280;37093;37.716;-122.060;2023-04-24T05:48:29;99836.61;;;14.09;53.51
51053;BME280;37093;37.716;-122.060;2023-04-24T05:50:57;99831.00;;;13.49;55.51
51053;BME280;37093;37.716;-122.060;2023-04-24T05:53:26;99819.65;;;13.85;55.12
51053;BME280;37093;37.716;-122.060;2023-04-24T05:55:54;99825.22;;;13.00;57.30
51053;BME280;37093;37.716;-122.060;2023-04-24T05:58:22;99828.27;;;13.06;56.67
51053;BME280;37093;37.716;-122.060;2023-04-24T06:00:51;99828.60;;;13.32;56.76
51053;BME280;37093;37.716;-122.060;2023-04-24T06:03:19;99831.34;;;13.33;56.44
51053;BME280;37093;37.716;-122.060;2023-04-24T06:05:47;99833.47;;;12.74;58.04
51053;BME280;37093;37.716;-122.060;2023-04-24T06:08:17;99829.16;;;13.35;56.64
51053;BME280;37093;37.716;-122.060;2023-04-24T06:10:45;99825.03;;;13.33;55.88
51053;BME280;37093;37.716;-122.060;2023-04-24T06:13:14;99821.93;;;13.87;55.33
51053;BME280;37093;37.716;-122.060;2023-04-24T06:15:44;99821.84;;;13.81;55.63
51053;BME280;37093;37.716;-122.060;2023-04-24T06:18:12;99827.63;;;12.57;58.47
51053;BME280;37093;37.716;-122.060;2023-04-24T06:20:41;99829.27;;;13.08;58.22
51053;BME280;37093;37.716;-122.060;2023-04-24T06:23:09;99832.22;;;12.60;59.36
51053;BME280;37093;37.716;-122.060;2023-04-24T06:25:38;99829.32;;;13.03;58.02
51053;BME280;37093;37.716;-122.060;2023-04-24T06:28:06;99832.66;;;13.56;55.76
51053;BME280;37093;37.716;-122.060;2023-04-24T06:30:35;99838.42;;;13.64;54.95
51053;BME280;37093;37.716;-122.060;2023-04-24T06:33:03;99837.13;;;14.00;52.32
51053;BME280;37093;37.716;-122.060;2023-04-24T06:35:32;99834.09;;;14.38;53.45
51053;BME280;37093;37.716;-122.060;2023-04-24T06:38:00;99839.78;;;14.33;52.75
51053;BME280;37093;37.716;-122.060;2023-04-24T06:40:28;99834.33;;;14.18;52.62
51053;BME280;37093;37.716;-122.060;2023-04-24T06:42:56;99842.29;;;14.20;53.59
51053;BME280;37093;37.716;-122.060;2023-04-24T06:45:25;99840.51;;;14.28;52.27
51053;BME280;37093;37.716;-122.060;2023-04-24T06:47:53;99839.09;;;14.68;51.48
51053;BME280;37093;37.716;-122.060;2023-04-24T06:50:21;99840.94;;;14.76;49.95
51053;BME280;37093;37.716;-122.060;2023-04-24T06:52:50;99835.86;;;15.05;49.82
51053;BME280;37093;37.716;-122.060;2023-04-24T06:55:19;99833.85;;;14.74;50.52
51053;BME280;37093;37.716;-122.060;2023-04-24T06:57:47;99840.55;;;14.30;51.94
51053;BME280;37093;37.716;-122.060;2023-04-24T07:01:11;99845.80;;;14.64;49.39
51053;BME280;37093;37.716;-122.060;2023-04-24T07:03:40;99842.33;;;14.74;47.37
51053;BME280;37093;37.716;-122.060;2023-04-24T07:06:08;99836.25;;;15.50;46.70
51053;BME280;37093;37.716;-122.060;2023-04-24T07:08:38;99835.02;;;15.77;46.73
51053;BME280;37093;37.716;-122.060;2023-04-24T07:11:06;99825.55;;;14.66;50.33
51053;BME280;37093;37.716;-122.060;2023-04-24T07:13:34;99831.77;;;14.22;52.45
51053;BME280;37093;37.716;-122.060;2023-04-24T07:16:03;99844.25;;;12.96;55.76
51053;BME280;37093;37.716;-122.060;2023-04-24T07:18:31;99849.68;;;13.05;56.39
51053;BME280;37093;37.716;-122.060;2023-04-24T07:20:59;99851.81;;;14.27;53.47
51053;BME280;37093;37.716;-122.060;2023-04-24T07:23:28;99846.46;;;13.90;53.14
51053;BME280;37093;37.716;-122.060;2023-04-24T07:25:56;99841.55;;;13.93;51.71
51053;BME280;37093;37.716;-122.060;2023-04-24T07:28:25;99844.95;;;14.45;52.07
51053;BME280;37093;37.716;-122.060;2023-04-24T07:30:53;99843.44;;;14.76;50.91
51053;BME280;37093;37.716;-122.060;2023-04-24T07:33:22;99844.21;;;14.62;50.86
51053;BME280;37093;37.716;-122.060;2023-04-24T07:35:50;99844.98;;;14.52;50.65
51053;BME280;37093;37.716;-122.060;2023-04-24T07:38:18;99858.35;;;14.89;49.25
51053;BME280;37093;37.716;-122.060;2023-04-24T07:40:47;99857.19;;;14.60;49.59
51053;BME280;37093;37.716;-122.060;2023-04-24T07:43:15;99865.78;;;15.45;49.08
51053;BME280;37093;37.716;-122.060;2023-04-24T07:45:44;99871.79;;;14.86;49.14
51053;BME280;37093;37.716;-122.060;2023-04-24T07:48:12;99867.76;;;15.01;47.62
51053;BME280;37093;37.716;-122.060;2023-04-24T07:50:40;99868.32;;;15.09;48.03
51053;BME280;37093;37.716;-122.060;2023-04-24T07:53:09;99874.35;;;14.29;51.04
51053;BME280;37093;37.716;-122.060;2023-04-24T07:55:37;99881.37;;;14.67;49.41
51053;BME280;37093;37.716;-122.060;2023-04-24T08:34:36;99865.98;;;14.24;49.80
51053;BME280;37093;37.716;-122.060;2023-04-24T08:37:05;99865.12;;;14.78;47.89
51053;BME280;37093;37.716;-122.060;2023-04-24T08:39:34;99864.66;;;14.26;48.74
51053;BME280;37093;37.716;-122.060;2023-04-24T08:42:03;99862.34;;;14.51;48.51
51053;BME280;37093;37.716;-122.060;2023-04-24T08:44:33;99854.99;;;14.69;47.63
51053;BME280;37093;37.716;-122.060;2023-04-24T08:47:02;99851.07;;;15.10;47.82
51053;BME280;37093;37.716;-122.060;2023-04-24T08:49:31;99851.24;;;15.03;47.87
51053;BME280;37093;37.716;-122.060;2023-04-24T08:52:01;99850.91;;;15.05;47.43
51053;BME280;37093;37.716;-122.060;2023-04-24T08:54:31;99853.37;;;14.39;48.94
51053;BME280;37093;37.716;-122.060;2023-04-24T08:57:01;99851.48;;;14.34;48.18
51053;BME280;37093;37.716;-122.060;2023-04-24T08:59:31;99841.60;;;14.73;47.82
51053;BME280;37093;37.716;-122.060;2023-04-24T09:02:00;99853.50;;;14.99;48.19
51053;BME280;37093;37.716;-122.060;2023-04-24T09:04:31;99869.36;;;15.04;47.67
51053;BME280;37093;37.716;-122.060;2023-04-24T09:07:01;99859.18;;;14.44;47.84
51053;BME280;37093;37.716;-122.060;2023-04-24T09:09:31;99852.33;;;14.81;48.20
51053;BME280;37093;37.716;-122.060;2023-04-24T09:12:00;99856.34;;;14.64;46.79
51053;BME280;37093;37.716;-122.060;2023-04-24T09:14:29;99852.84;;;14.74;46.93
51053;BME280;37093;37.716;-122.060;2023-04-24T09:16:58;99845.02;;;15.04;46.60
51053;BME280;37093;37.716;-122.060;2023-04-24T09:19:26;99848.18;;;15.02;46.74
51053;BME280;37093;37.716;-122.060;2023-04-24T09:21:54;99852.21;;;15.34;45.83
51053;BME280;37093;37.716;-122.060;2023-04-24T09:24:23;99848.12;;;15.04;45.77
51053;BME280;37093;37.716;-122.060;2023-04-24T09:26:57;99844.24;;;15.17;45.29
51053;BME280;37093;37.716;-122.060;2023-04-24T09:29:27;99841.84;;;15.42;45.26
51053;BME280;37093;37.716;-122.060;2023-04-24T09:31:55;99836.99;;;15.68;44.49
51053;BME280;37093;37.716;-122.060;2023-04-24T09:34:24;99834.65;;;15.72;44.42
51053;BME280;37093;37.716;-122.060;2023-04-24T09:36:54;99830.82;;;15.63;43.71
51053;BME280;37093;37.716;-122.060;2023-04-24T09:39:22;99833.48;;;15.45;43.69
51053;BME280;37093;37.716;-122.060;2023-04-24T09:41:52;99829.77;;;15.37;44.55
51053;BME280;37093;37.716;-122.060;2023-04-24T09:44:21;99831.13;;;15.32;44.47
51053;BME280;37093;37.716;-122.060;2023-04-24T09:46:52;99825.68;;;15.50;44.35
51053;BME280;37093;37.716;-122.060;2023-04-24T09:49:23;99821.22;;;15.46;43.99
51053;BME280;37093;37.716;-122.060;2023-04-24T09:51:52;99829.25;;;15.56;43.69
51053;BME280;37093;37.716;-122.060;2023-04-24T09:54:29;99828.91;;;15.45;43.92
51053;BME280;37093;37.716;-122.060;2023-04-24T09:56:58;99833.48;;;15.01;43.57
51053;BME280;37093;37.716;-122.060;2023-04-24T09:59:27;99838.34;;;15.10;44.00
51053;BME280;37093;37.716;-122.060;2023-04-24T10:01:56;99841.45;;;14.83;43.73
51053;BME280;37093;37.716;-122.060;2023-04-24T10:04:26;99831.40;;;15.36;43.35
51053;BME280;37093;37.716;-122.060;2023-04-24T10:06:56;99825.94;;;15.26;42.99
51053;BME280;37093;37.716;-122.060;2023-04-24T10:09:25;99822.53;;;15.24;43.24
51053;BME280;37093;37.716;-122.060;2023-04-24T10:11:54;99822.63;;;15.46;43.53
51053;BME280;37093;37.716;-122.060;2023-04-24T10:14:24;99816.38;;;15.09;43.43
51053;BME280;37093;37.716;-122.060;2023-04-24T10:16:54;99809.61;;;14.98;43.64
51053;BME280;37093;37.716;-122.060;2023-04-24T10:19:26;99814.15;;;15.14;44.17
51053;BME280;37093;37.716;-122.060;2023-04-24T10:21:54;99820.63;;;14.57;43.82
51053;BME280;37093;37.716;-122.060;2023-04-24T10:24:23;99815.81;;;14.89;44.73
51053;BME280;37093;37.716;-122.060;2023-04-24T10:26:53;99815.34;;;14.75;45.17
51053;BME280;37093;37.716;-122.060;2023-04-24T10:29:22;99820.71;;;14.60;44.18
51053;BME280;37093;37.716;-122.060;2023-04-24T10:31:51;99818.00;;;14.27;45.56
51053;BME280;37093;37.716;-122.060;2023-04-24T10:34:21;99821.72;;;14.50;45.15
51053;BME280;37093;37.716;-122.060;2023-04-24T10:36:53;99819.81;;;14.55;45.05
51053;BME280;37093;37.716;-122.060;2023-04-24T10:39:23;99821.51;;;14.60;44.96
51053;BME280;37093;37.716;-122.060;2023-04-24T10:41:52;99835.51;;;14.24;44.83
51053;BME280;37093;37.716;-122.060;2023-04-24T10:44:23;99839.02;;;14.55;44.85
51053;BME280;37093;37.716;-122.060;2023-04-24T10:46:55;99838.89;;;14.82;44.90
51053;BME280;37093;37.716;-122.060;2023-04-24T10:49:29;99839.49;;;14.70;44.79
51053;BME280;37093;37.716;-122.060;2023-04-24T10:52:02;99847.33;;;14.62;44.41
51053;BME280;37093;37.716;-122.060;2023-04-24T10:54:36;99842.38;;;15.09;44.07
51053;BME280;37093;37.716;-122.060;2023-04-24T10:57:40;99832.54;;;14.64;44.47
51053;BME280;37093;37.716;-122.060;2023-04-24T11:00:29;99839.09;;;14.73;43.93
51053;BME280;37093;37.716;-122.060;2023-04-24T11:02:57;99840.09;;;14.49;46.16
51053;BME280;37093;37.716;-122.060;2023-04-24T11:05:51;99842.23;;;14.31;45.08
51053;BME280;37093;37.716;-122.060;2023-04-24T11:08:27;99832.68;;;14.05;46.47
51053;BME280;37093;37.716;-122.060;2023-04-24T11:10:58;99828.55;;;13.96;46.19
51053;BME280;37093;37.716;-122.060;2023-04-24T11:16:29;99826.78;;;14.31;45.71
51053;BME280;37093;37.716;-122.060;2023-04-24T11:19:02;99821.32;;;14.23;45.65
51053;BME280;37093;37.716;-122.060;2023-04-24T11:21:41;99821.76;;;13.72;45.25
51053;BME280;37093;37.716;-122.060;2023-04-24T11:24:29;99828.72;;;13.66;46.70
51053;BME280;37093;37.716;-122.060;2023-04-24T11:27:00;99833.17;;;13.72;45.82
51053;BME280;37093;37.716;-122.060;2023-04-24T11:29:42;99834.95;;;14.08;46.99
51053;BME280;37093;37.716;-122.060;2023-04-24T11:32:23;99831.79;;;14.10;46.66
51053;BME280;37093;37.716;-122.060;2023-04-24T11:34:53;99829.40;;;14.15;46.25
51053;BME280;37093;37.716;-122.060;2023-04-24T11:37:24;99835.94;;;14.05;46.04
51053;BME280;37093;37.716;-122.060;2023-04-24T11:39:55;99840.31;;;14.04;46.75
51053;BME280;37093;37.716;-122.060;2023-04-24T11:42:24;99846.74;;;13.89;46.07
51053;BME280;37093;37.716;-122.060;2023-04-24T11:44:54;99840.88;;;13.60;47.66
51053;BME280;37093;37.716;-122.060;2023-04-24T11:47:29;99834.55;;;13.44;47.48
51053;BME280;37093;37.716;-122.060;2023-04-24T11:49:59;99830.14;;;13.40;47.56
51053;BME280;37093;37.716;-122.060;2023-04-24T11:52:28;99823.61;;;12.80;49.80
51053;BME280;37093;37.716;-122.060;2023-04-24T11:54:57;99824.16;;;12.00;52.35
51053;BME280;37093;37.716;-122.060;2023-04-24T11:57:26;99825.01;;;12.34;50.82
51053;BME280;37093;37.716;-122.060;2023-04-24T11:59:54;99831.88;;;12.72;50.57
51053;BME280;37093;37.716;-122.060;2023-04-24T12:02:23;99832.57;;;13.09;48.74
51053;BME280;37093;37.716;-122.060;2023-04-24T12:04:54;99836.38;;;13.40;47.95
51053;BME280;37093;37.716;-122.060;2023-04-24T12:07:23;99835.51;;;13.43;47.15
51053;BME280;37093;37.716;-122.060;2023-04-24T12:09:57;99836.80;;;13.75;47.51
51053;BME280;37093;37.716;-122.060;2023-04-24T12:12:27;99842.07;;;13.70;46.72
51053;BME280;37093;37.716;-122.060;2023-04-24T12:14:57;99838.61;;;13.91;46.34
51053;BME280;37093;37.716;-122.060;2023-04-24T12:17:27;99836.80;;;13.28;48.28
51053;BME280;37093;37.716;-122.060;2023-04-24T12:19:59;99829.85;;;13.58;46.87
51053;BME280;37093;37.716;-122.060;2023-04-24T12:22:28;99829.95;;;13.07;48.40
51053;BME280;37093;37.716;-122.060;2023-04-24T12:24:59;99831.40;;;13.21;47.46
51053;BME280;37093;37.716;-122.060;2023-04-24T12:27:30;99832.92;;;12.80;48.61
51053;BME280;37093;37.716;-122.060;2023-04-24T12:30:00;99827.81;;;12.76;49.52
51053;BME280;37093;37.716;-122.060;2023-04-24T12:32:28;99826.87;;;12.43;50.48
51053;BME280;37093;37.716;-122.060;2023-04-24T12:34:57;99825.19;;;12.60;49.76
51053;BME280;37093;37.716;-122.060;2023-04-24T12:37:32;99835.06;;;12.39;51.46
51053;BME280;37093;37.716;-122.060;2023-04-24T12:40:03;99837.23;;;12.61;50.73
51053;BME280;37093;37.716;-122.060;2023-04-24T12:42:33;99835.06;;;11.76;54.23
51053;BME280;37093;37.716;-122.060;2023-04-24T12:45:03;99831.70;;;12.32;52.93
51053;BME280;37093;37.716;-122.060;2023-04-24T12:47:32;99836.51;;;11.17;56.94
51053;BME280;37093;37.716;-122.060;2023-04-24T12:50:01;99838.09;;;11.36;54.88
51053;BME280;37093;37.716;-122.060;2023-04-24T12:52:30;99835.77;;;11.68;56.15
51053;BME280;37093;37.716;-122.060;2023-04-24T12:55:00;99834.08;;;11.91;55.50
51053;BME280;37093;37.716;-122.060;2023-04-24T12:57:29;99833.30;;;11.84;54.75
51053;BME280;37093;37.716;-122.060;2023-04-24T12:59:59;99833.44;;;12.21;54.13
51053;BME280;37093;37.716;-122.060;2023-04-24T13:02:29;99832.95;;;11.77;56.06
51053;BME280;37093;37.716;-122.060;2023-04-24T13:04:58;99831.39;;;12.36;53.51
51053;BME280;37093;37.716;-122.060;2023-04-24T13:07:27;99829.16;;;12.24;53.63
51053;BME280;37093;37.716;-122.060;2023-04-24T13:09:56;99832.08;;;12.57;52.44
51053;BME280;37093;37.716;-122.060;2023-04-24T13:12:24;99837.29;;;12.63;51.91
51053;BME280;37093;37.716;-122.060;2023-04-24T13:14:53;99839.10;;;12.99;51.46
51053;BME280;37093;37.716;-122.060;2023-04-24T13:17:22;99842.55;;;12.53;52.14
51053;BME280;37093;37.716;-122.060;2023-04-24T13:19:53;99840.40;;;12.67;51.44
51053;BME280;37093;37.716;-122.060;2023-04-24T13:22:22;99842.50;;;12.60;52.08